Flight Track Log - Related Links

Times and Time Zones

All times are in EDT time to prevent confusion due to time zone crossing. See the ELT218 flight status page for this flight to view local times or setup timezone preferences in your user account.

Time Position Orientation Groundspeed Altitude Reporting Facility
EDT Latitude Longitude Course Direction KTS MPH feet Rate Location/Type
Fri 06:25:06 PM 48.5281 -93.3486 152° Southeast 129 148 3,900  Level Minneapolis Center
Fri 06:26:08 PM 48.4919 -93.3194 152° Southeast 146 168 5,900 1,935 Climbing Minneapolis Center
Fri 06:27:10 PM 48.4531 -93.2883 152° Southeast 151 174 7,900 1,887 Climbing Minneapolis Center
Fri 06:28:12 PM 48.4097 -93.2594 156° South 160 184 9,800 1,742 Climbing Minneapolis Center
Fri 06:29:14 PM 48.3525 -93.2233 157° South 174 200 11,500 1,721 Climbing Minneapolis Center
Fri 06:30:28 PM 48.2908 -93.1797 155° Southeast 191 220 13,700 1,533 Climbing Minneapolis Center
Fri 06:31:31 PM 48.2378 -93.1419 155° Southeast 201 231 15,000 624 Climbing Minneapolis Center
Fri 06:32:33 PM 48.1747 -93.0972 155° Southeast 228 262 15,000  Level Minneapolis Center
Fri 06:33:35 PM 48.1058 -93.0481 155° Southeast 260 299 15,000  Level Minneapolis Center
Fri 06:34:37 PM 48.0347 -92.9986 155° Southeast 273 314 15,000  Level Minneapolis Center
Fri 06:35:39 PM 47.9481 -92.9383 155° Southeast 281 323 15,000  Level Minneapolis Center
Fri 06:36:41 PM 47.8758 -92.8878 155° Southeast 284 327 15,000  Level Minneapolis Center
Fri 06:37:43 PM 47.8017 -92.8406 157° South 287 330 15,000  Level Minneapolis Center
Fri 06:38:45 PM 47.7272 -92.7981 159° South 287 330 15,000  Level Minneapolis Center
Fri 06:39:47 PM 47.6528 -92.7539 158° South 287 330 15,000  Level Minneapolis Center
Fri 06:40:49 PM 47.5781 -92.7106 159° South 287 330 15,000  Level Minneapolis Center
Fri 06:41:51 PM 47.5033 -92.6672 159° South 287 330 15,000 -532 Level Minneapolis Center
Fri 06:42:53 PM 47.4125 -92.6147 159° South 288 331 13,900 -1,306 Descending Minneapolis Center
Fri 06:43:55 PM 47.3336 -92.5706 159° South 294 338 12,300 -1,500 Descending Minneapolis Center
Fri 06:44:57 PM 47.2569 -92.5269 159° South 296 341 10,800 -1,452 Descending Minneapolis Center
Fri 06:45:59 PM 47.1817 -92.4839 159° South 294 338 9,300 -1,452 Descending Minneapolis Center
Fri 06:47:01 PM 47.1081 -92.4419 159° South 289 333 7,800 -1,440 Descending Minneapolis Center
Fri 06:48:04 PM 47.0358 -92.4006 159° South 284 327 6,300 -1,392 Descending Minneapolis Center
Fri 06:49:06 PM 46.9658 -92.3619 159° South 277 319 4,900 -1,403 Descending Minneapolis Center
Fri 06:50:08 PM 46.8936 -92.3217 159° South 253 291 3,400 -1,113 Descending Minneapolis Center
Fri 06:51:10 PM 46.8469 -92.2917 156° South 216 249 2,600 -726 Descending Minneapolis Center
Fri 06:52:12 PM 46.8450 -92.2297 93° East 175 201 1,900 -677 Descending Minneapolis Center
Fri 06:54:00 PM 46.8421 -92.1936 146° Southeast  Level Estimated
Fri 07:01:00 PM 46.8421 -92.1936 146° Southeast  Level Estimated
Fri 07:02:00 PM 46.8421 -92.1936 146° Southeast  Level Estimated

Login

Don't have an account? Register now (free) for customized features, flight alerts, and more!